createdAt,value
2018-08-03T00:00:03.150Z,100657.48
2018-08-03T00:02:31.687Z,100660.16
2018-08-03T00:05:00.160Z,100656.31
2018-08-03T00:07:28.798Z,100652.48
2018-08-03T00:09:57.520Z,100651.48
2018-08-03T00:12:25.931Z,100649.64
2018-08-03T00:14:54.344Z,100650.39
2018-08-03T00:17:22.866Z,100658.31
2018-08-03T00:19:51.246Z,100653.07
2018-08-03T00:22:19.747Z,100651.23
2018-08-03T00:24:48.348Z,100644.20
2018-08-03T00:27:16.798Z,100646.87
2018-08-03T00:29:45.247Z,100647.82
2018-08-03T00:32:13.933Z,100649.64
2018-08-03T00:34:42.403Z,100654.88
2018-08-03T00:37:10.803Z,100655.34
2018-08-03T00:39:39.231Z,100651.02
2018-08-03T00:42:07.674Z,100650.73
2018-08-03T00:44:36.084Z,100650.53
2018-08-03T00:47:04.611Z,100653.87
2018-08-03T00:49:33.079Z,100655.00
2018-08-03T00:52:01.584Z,100654.47
2018-08-03T00:54:30.123Z,100648.23
2018-08-03T00:56:58.489Z,100648.34
2018-08-03T00:59:26.933Z,100647.87
2018-08-03T01:01:55.515Z,100648.45
2018-08-03T01:04:23.915Z,100649.12
2018-08-03T01:06:52.353Z,100660.27
2018-08-03T01:09:20.763Z,100658.41
2018-08-03T01:11:49.356Z,100656.11
2018-08-03T01:14:17.854Z,100652.92
2018-08-03T01:16:46.674Z,100657.92
2018-08-03T01:19:15.657Z,100654.66
2018-08-03T01:21:45.235Z,100668.58
2018-08-03T01:24:13.771Z,100662.30
2018-08-03T01:26:42.307Z,100662.67
2018-08-03T01:29:10.706Z,100654.05
2018-08-03T01:31:39.241Z,100660.33
2018-08-03T01:34:07.690Z,100662.55
2018-08-03T01:36:36.074Z,100668.38
2018-08-03T01:39:06.695Z,100665.33
2018-08-03T01:41:51.771Z,100667.59
2018-08-03T01:44:20.371Z,100664.00
2018-08-03T01:46:48.790Z,100669.30
2018-08-03T01:49:17.263Z,100675.50
2018-08-03T01:51:45.787Z,100665.13
2018-08-03T01:54:14.199Z,100661.27
2018-08-03T01:56:42.599Z,100659.94
2018-08-03T01:59:11.149Z,100658.83
2018-08-03T02:01:39.563Z,100660.64
2018-08-03T02:04:08.081Z,100660.05
2018-08-03T02:06:36.715Z,100664.48
2018-08-03T02:09:07.692Z,100664.53
2018-08-03T02:11:36.251Z,100667.28
2018-08-03T02:14:04.956Z,100667.95
2018-08-03T02:16:33.363Z,100663.54
2018-08-03T02:19:02.168Z,100668.77
2018-08-03T02:21:31.039Z,100674.66
2018-08-03T02:23:59.495Z,100679.48
2018-08-03T02:26:27.967Z,100670.98
2018-08-03T02:28:56.375Z,100677.69
2018-08-03T02:31:24.879Z,100674.61
2018-08-03T02:33:53.632Z,100674.39
2018-08-03T02:36:22.188Z,100670.11
2018-08-03T02:38:50.589Z,100673.14
2018-08-03T02:41:19.083Z,100672.38
2018-08-03T02:43:47.547Z,100679.94
2018-08-03T02:46:15.936Z,100675.17
2018-08-03T02:48:44.360Z,100684.54
2018-08-03T02:51:12.787Z,100685.53
2018-08-03T02:53:41.303Z,100681.42
2018-08-03T02:56:09.875Z,100678.23
2018-08-03T02:58:38.251Z,100682.08
2018-08-03T03:01:06.992Z,100680.01
2018-08-03T03:03:35.663Z,100679.00
2018-08-03T03:06:04.112Z,100685.88
2018-08-03T03:08:32.579Z,100682.55
2018-08-03T03:11:01.352Z,100683.12
2018-08-03T03:13:29.831Z,100694.92
2018-08-03T03:15:58.267Z,100691.69
2018-08-03T03:18:26.725Z,100698.00
2018-08-03T03:20:55.408Z,100696.34
2018-08-03T03:23:24.111Z,100699.91
2018-08-03T03:25:52.731Z,100694.11
2018-08-03T03:28:21.159Z,100699.80
2018-08-03T03:30:49.571Z,100692.43
2018-08-03T03:33:18.052Z,100697.48
2018-08-03T03:35:46.503Z,100693.60
2018-08-03T03:38:14.949Z,100697.40
2018-08-03T03:40:43.542Z,100697.30
2018-08-03T03:43:12.203Z,100701.63
2018-08-03T03:45:40.605Z,100703.44
2018-08-03T03:48:09.076Z,100699.23
2018-08-03T03:50:37.503Z,100692.34
2018-08-03T03:53:05.988Z,100702.58
2018-08-03T03:55:34.543Z,100702.09
2018-08-03T03:58:02.975Z,100701.57
2018-08-03T04:00:31.331Z,100700.98
2018-08-03T04:02:59.862Z,100704.20
2018-08-03T04:05:28.380Z,100706.70
2018-08-03T04:07:56.775Z,100703.45
2018-08-03T04:10:25.207Z,100704.60
2018-08-03T04:12:53.594Z,100703.69
2018-08-03T04:15:22.015Z,100704.32
2018-08-03T04:17:50.553Z,100700.94
2018-08-03T04:20:19.020Z,100705.48
2018-08-03T04:22:47.495Z,100698.63
2018-08-03T04:25:16.184Z,100699.98
2018-08-03T04:27:44.578Z,100703.20
2018-08-03T04:30:13.021Z,100696.75
2018-08-03T04:32:41.506Z,100707.22
2018-08-03T04:35:09.996Z,100708.81
2018-08-03T04:37:38.508Z,100707.08
2018-08-03T04:40:07.002Z,100704.38
2018-08-03T04:42:35.481Z,100716.13
2018-08-03T04:45:03.880Z,100711.86
2018-08-03T04:47:32.395Z,100707.95
2018-08-03T04:50:01.051Z,100705.86
2018-08-03T04:52:29.831Z,100708.56
2018-08-03T04:54:58.301Z,100708.59
2018-08-03T04:57:26.843Z,100707.80
2018-08-03T04:59:55.323Z,100703.97
2018-08-03T05:02:24.103Z,100713.30
2018-08-03T05:04:52.536Z,100706.28
2018-08-03T05:07:20.991Z,100720.67
2018-08-03T05:09:49.447Z,100717.75
2018-08-03T05:12:17.883Z,100724.38
2018-08-03T05:14:46.319Z,100717.95
2018-08-03T05:17:14.980Z,100722.78
2018-08-03T05:19:43.384Z,100720.47
2018-08-03T05:22:11.771Z,100724.89
2018-08-03T05:24:40.231Z,100727.12
2018-08-03T05:27:08.628Z,100732.55
2018-08-03T05:29:37.039Z,100732.15
2018-08-03T05:32:05.664Z,100731.98
2018-08-03T05:34:34.275Z,100729.77
2018-08-03T05:37:03.088Z,100732.19
2018-08-03T05:39:31.864Z,100732.98
2018-08-03T05:42:00.340Z,100731.83
2018-08-03T05:44:28.735Z,100732.52
2018-08-03T05:46:57.347Z,100730.27
2018-08-03T05:49:25.811Z,100726.20
2018-08-03T05:51:54.324Z,100727.02
2018-08-03T05:54:22.978Z,100732.78
2018-08-03T05:56:51.409Z,100731.47
2018-08-03T05:59:19.886Z,100733.97
2018-08-03T06:01:48.516Z,100734.81
2018-08-03T06:04:16.995Z,100736.09
2018-08-03T06:06:45.487Z,100731.72
2018-08-03T06:09:14.047Z,100740.82
2018-08-03T06:11:42.466Z,100738.30
2018-08-03T06:14:10.988Z,100737.42
2018-08-03T06:16:39.447Z,100744.54
2018-08-03T06:19:07.852Z,100739.88
2018-08-03T06:21:36.350Z,100736.64
2018-08-03T06:24:04.858Z,100740.38
2018-08-03T06:26:33.263Z,100746.13
2018-08-03T06:29:01.835Z,100744.05
2018-08-03T06:31:30.331Z,100742.85
2018-08-03T06:33:58.823Z,100745.19
2018-08-03T06:36:27.311Z,100740.73
2018-08-03T06:38:55.888Z,100745.48
2018-08-03T06:41:24.383Z,100742.08
2018-08-03T06:43:52.919Z,100741.92
2018-08-03T06:46:21.690Z,100735.75
2018-08-03T06:48:50.265Z,100738.30
2018-08-03T06:51:18.673Z,100736.69
2018-08-03T06:53:47.438Z,100736.09
2018-08-03T06:56:15.863Z,100739.25
2018-08-03T06:58:44.390Z,100735.73
2018-08-03T07:01:13.026Z,100738.50
2018-08-03T07:03:41.431Z,100740.45
2018-08-03T07:06:09.964Z,100740.61
2018-08-03T07:08:38.500Z,100746.44
2018-08-03T07:11:07.187Z,100737.20
2018-08-03T07:13:35.635Z,100736.60
2018-08-03T07:16:04.106Z,100739.91
2018-08-03T07:18:32.617Z,100733.09
2018-08-03T07:21:01.011Z,100737.88
2018-08-03T07:23:29.679Z,100737.67
2018-08-03T07:25:58.116Z,100732.59
2018-08-03T07:28:26.607Z,100734.81
2018-08-03T07:30:55.195Z,100738.98
2018-08-03T07:33:23.682Z,100737.69
2018-08-03T07:35:52.227Z,100737.07
2018-08-03T07:38:20.635Z,100733.27
2018-08-03T07:40:49.044Z,100730.69
2018-08-03T07:43:17.597Z,100729.70
2018-08-03T07:45:45.984Z,100732.12
2018-08-03T07:48:14.439Z,100729.43
2018-08-03T07:50:42.811Z,100727.42
2018-08-03T07:53:11.404Z,100723.39
2018-08-03T07:55:39.911Z,100722.88
2018-08-03T07:58:08.402Z,100717.09
2018-08-03T08:00:36.843Z,100717.73
2018-08-03T08:03:05.339Z,100722.53
2018-08-03T08:05:33.879Z,100714.84
2018-08-03T08:08:03.263Z,100713.33
2018-08-03T08:10:33.139Z,100711.81
2018-08-03T08:13:01.657Z,100715.27
2018-08-03T08:15:30.700Z,100704.55
2018-08-03T08:17:59.985Z,100708.05
2018-08-03T08:20:29.419Z,100699.20
2018-08-03T08:22:57.995Z,100700.52
2018-08-03T08:25:26.479Z,100700.78
2018-08-03T08:27:54.943Z,100700.34
2018-08-03T08:30:23.519Z,100699.73
2018-08-03T08:32:51.955Z,100700.34
2018-08-03T08:35:20.475Z,100699.37
2018-08-03T08:37:48.895Z,100699.47
2018-08-03T08:40:17.255Z,100698.82
2018-08-03T08:42:45.740Z,100696.80
2018-08-03T08:45:14.192Z,100696.58
2018-08-03T08:47:42.621Z,100698.20
2018-08-03T08:50:11.236Z,100694.48
2018-08-03T08:52:39.759Z,100695.04
2018-08-03T08:55:08.163Z,100695.66
2018-08-03T08:57:36.547Z,100689.11
2018-08-03T09:00:05.319Z,100690.66
2018-08-03T09:02:33.771Z,100694.14
2018-08-03T09:05:02.285Z,100684.87
2018-08-03T09:07:30.906Z,100687.59
2018-08-03T09:09:59.239Z,100683.45
2018-08-03T09:12:27.644Z,100679.87
2018-08-03T09:14:56.225Z,100681.77
2018-08-03T09:17:24.627Z,100680.56
2018-08-03T09:19:53.023Z,100681.06
2018-08-03T09:22:21.412Z,100672.98
2018-08-03T09:24:49.907Z,100669.38
2018-08-03T09:27:18.316Z,100665.93
2018-08-03T09:29:47.179Z,100661.44
2018-08-03T09:32:15.660Z,100662.64
2018-08-03T09:34:44.145Z,100666.23
2018-08-03T09:37:12.669Z,100660.06
2018-08-03T09:39:41.071Z,100650.95
2018-08-03T09:42:09.479Z,100657.34
2018-08-03T09:44:37.994Z,100652.15
2018-08-03T09:47:06.476Z,100650.00
2018-08-03T09:49:34.999Z,100651.23
2018-08-03T09:52:03.399Z,100644.04
2018-08-03T09:54:31.916Z,100643.70
2018-08-03T09:57:00.335Z,100641.44
2018-08-03T09:59:28.846Z,100643.83
2018-08-03T10:01:57.383Z,100637.55
2018-08-03T10:04:25.832Z,100632.65
2018-08-03T10:06:54.332Z,100635.19
2018-08-03T10:09:22.811Z,100636.83
2018-08-03T10:11:51.325Z,100637.70
2018-08-03T10:14:19.971Z,100636.05
2018-08-03T10:16:48.411Z,100627.11
2018-08-03T10:19:16.857Z,100621.77
2018-08-03T10:21:45.552Z,100626.87
2018-08-03T10:24:13.959Z,100626.16
2018-08-03T10:26:42.378Z,100629.08
2018-08-03T10:29:10.894Z,100625.39
2018-08-03T10:31:39.336Z,100614.45
2018-08-03T10:34:07.803Z,100615.17
2018-08-03T10:36:36.418Z,100614.74
2018-08-03T10:39:07.628Z,100610.27
2018-08-03T10:41:36.140Z,100610.04
2018-08-03T10:44:04.695Z,100609.94
2018-08-03T10:46:33.196Z,100607.96
2018-08-03T10:49:02.270Z,100607.70
2018-08-03T10:51:30.676Z,100601.62
2018-08-03T10:53:59.036Z,100605.88
2018-08-03T10:56:27.968Z,100599.04
2018-08-03T10:58:56.355Z,100593.33
2018-08-03T11:01:24.930Z,100587.69
2018-08-03T11:03:53.387Z,100589.42
2018-08-03T11:06:21.830Z,100587.59
2018-08-03T11:08:50.334Z,100574.80
2018-08-03T11:11:18.815Z,100581.23
2018-08-03T11:13:47.262Z,100572.17
2018-08-03T11:16:15.607Z,100574.36
2018-08-03T11:18:44.187Z,100572.76
2018-08-03T11:21:12.642Z,100575.05
2018-08-03T11:23:41.152Z,100572.31
2018-08-03T11:26:09.555Z,100569.28
2018-08-03T11:28:38.012Z,100560.05
2018-08-03T11:31:06.431Z,100562.45
2018-08-03T11:33:34.909Z,100562.19
2018-08-03T11:36:03.428Z,100561.47
2018-08-03T11:38:31.863Z,100554.95
2018-08-03T11:41:00.660Z,100555.73
2018-08-03T11:43:29.831Z,100555.19
2018-08-03T11:45:58.275Z,100549.56
2018-08-03T11:48:26.696Z,100551.27
2018-08-03T11:50:55.194Z,100549.70
2018-08-03T11:53:23.660Z,100553.50
2018-08-03T11:55:52.324Z,100543.91
2018-08-03T11:58:20.745Z,100542.19
2018-08-03T12:00:49.191Z,100535.02
2018-08-03T12:03:17.799Z,100527.38
2018-08-03T12:05:46.233Z,100531.59
2018-08-03T12:08:14.699Z,100527.05
2018-08-03T12:10:43.441Z,100525.02
2018-08-03T12:13:11.836Z,100517.78
2018-08-03T12:15:40.280Z,100515.00
2018-08-03T12:18:10.571Z,100510.63
2018-08-03T12:20:39.022Z,100510.27
2018-08-03T12:23:07.415Z,100503.67
2018-08-03T12:25:36.011Z,100492.59
2018-08-03T12:28:04.403Z,100503.94
2018-08-03T12:30:32.783Z,100499.48
2018-08-03T12:33:01.576Z,100496.73
2018-08-03T12:35:30.277Z,100487.03
2018-08-03T12:37:58.951Z,100480.67
2018-08-03T12:40:27.716Z,100483.52
2018-08-03T12:42:56.182Z,100483.38
2018-08-03T12:45:33.833Z,100481.83
2018-08-03T12:47:53.363Z,100489.16
2018-08-03T12:50:21.769Z,100484.68
2018-08-03T12:52:50.188Z,100471.97
2018-08-03T12:55:18.859Z,100470.51
2018-08-03T12:57:47.459Z,100472.27
2018-08-03T13:00:15.884Z,100477.95
2018-08-03T13:02:44.430Z,100474.13
2018-08-03T13:05:12.795Z,100468.75
2018-08-03T13:07:41.225Z,100472.09
2018-08-03T13:10:09.944Z,100468.23
2018-08-03T13:12:38.665Z,100458.38
2018-08-03T13:15:08.499Z,100463.46
2018-08-03T13:17:36.915Z,100456.47
2018-08-03T13:20:05.980Z,100451.88
2018-08-03T13:22:34.362Z,100453.05
2018-08-03T13:25:02.861Z,100456.69
2018-08-03T13:27:31.611Z,100459.33
2018-08-03T13:30:00.078Z,100448.92
2018-08-03T13:32:28.707Z,100444.62
2018-08-03T13:34:57.239Z,100442.97
2018-08-03T13:37:25.763Z,100441.85
2018-08-03T13:39:54.844Z,100436.33
2018-08-03T13:42:23.340Z,100441.45
2018-08-03T13:44:51.759Z,100432.22
2018-08-03T13:47:20.288Z,100431.59
2018-08-03T13:49:48.715Z,100425.59
2018-08-03T13:52:17.350Z,100427.56
2018-08-03T13:54:45.828Z,100422.52
2018-08-03T13:57:14.295Z,100413.27
2018-08-03T13:59:42.901Z,100410.28
2018-08-03T14:02:24.896Z,100402.02
2018-08-03T14:04:54.055Z,100400.06
2018-08-03T14:07:22.499Z,100394.80
2018-08-03T14:09:51.279Z,100395.06
2018-08-03T14:12:19.868Z,100389.63
2018-08-03T14:14:48.260Z,100393.08
2018-08-03T14:17:16.777Z,100393.39
2018-08-03T14:19:45.266Z,100385.69
2018-08-03T14:22:13.720Z,100390.20
2018-08-03T14:24:42.447Z,100384.89
2018-08-03T14:27:10.972Z,100385.72
2018-08-03T14:29:39.497Z,100376.27
2018-08-03T14:32:08.093Z,100381.98
2018-08-03T14:34:36.566Z,100373.93
2018-08-03T14:37:05.073Z,100370.42
2018-08-03T14:39:33.590Z,100370.84
2018-08-03T14:42:02.035Z,100364.00
2018-08-03T14:44:30.506Z,100369.29
2018-08-03T14:46:59.195Z,100354.73
2018-08-03T14:49:27.643Z,100359.75
2018-08-03T14:51:56.147Z,100359.13
2018-08-03T14:54:24.631Z,100354.77
2018-08-03T14:56:53.031Z,100348.45
2018-08-03T14:59:21.495Z,100348.23
2018-08-03T15:01:50.016Z,100347.16
2018-08-03T15:04:18.470Z,100348.66
2018-08-03T15:06:47.032Z,100342.59
2018-08-03T15:09:15.646Z,100339.59
2018-08-03T15:11:44.083Z,100341.29
2018-08-03T15:14:12.587Z,100345.68
2018-08-03T15:16:41.243Z,100345.27
2018-08-03T15:19:09.767Z,100342.07
2018-08-03T15:21:38.169Z,100338.23
2018-08-03T15:24:06.805Z,100336.06
2018-08-03T15:26:35.207Z,100338.37
2018-08-03T15:29:03.738Z,100338.82
2018-08-03T15:31:32.295Z,100328.81
2018-08-03T15:34:00.748Z,100326.86
2018-08-03T15:36:29.200Z,100323.66
2018-08-03T15:38:58.195Z,100327.80
2018-08-03T15:41:26.583Z,100326.91
2018-08-03T15:43:55.055Z,100325.63
2018-08-03T15:46:23.771Z,100328.30
2018-08-03T15:48:52.218Z,100319.19
2018-08-03T15:51:20.615Z,100309.80
2018-08-03T15:53:49.251Z,100315.27
2018-08-03T15:56:17.659Z,100310.55
2018-08-03T15:58:46.164Z,100308.73
2018-08-03T16:01:14.672Z,100299.47
2018-08-03T16:03:43.149Z,100299.55
2018-08-03T16:06:11.559Z,100295.84
2018-08-03T16:08:40.311Z,100290.50
2018-08-03T16:11:08.808Z,100291.50
2018-08-03T16:13:37.328Z,100287.91
2018-08-03T16:16:05.787Z,100287.53
2018-08-03T16:18:34.251Z,100278.33
2018-08-03T16:21:02.723Z,100278.12
2018-08-03T16:23:31.172Z,100280.19
2018-08-03T16:25:59.591Z,100277.31
2018-08-03T16:28:28.011Z,100278.39
2018-08-03T16:30:56.517Z,100272.06
2018-08-03T16:33:24.956Z,100273.11
2018-08-03T16:35:53.435Z,100263.85
2018-08-03T16:38:22.024Z,100262.37
2018-08-03T16:40:50.457Z,100263.97
2018-08-03T16:43:18.862Z,100257.19
2018-08-03T16:45:47.292Z,100263.12
2018-08-03T16:48:15.879Z,100258.74
2018-08-03T16:50:44.284Z,100258.96
2018-08-03T16:53:13.003Z,100261.26
2018-08-03T16:55:41.555Z,100259.51
2018-08-03T16:58:09.952Z,100259.28
2018-08-03T17:00:38.595Z,100259.08
2018-08-03T17:03:07.331Z,100258.67
2018-08-03T17:05:35.819Z,100260.84
2018-08-03T17:08:04.887Z,100260.98
2018-08-03T17:10:33.443Z,100250.64
2018-08-03T17:13:01.891Z,100251.95
2018-08-03T17:15:30.580Z,100244.19
2018-08-03T17:17:59.127Z,100248.13
2018-08-03T17:20:27.571Z,100249.77
2018-08-03T17:22:55.991Z,100247.34
2018-08-03T17:25:24.486Z,100245.72
2018-08-03T17:27:52.882Z,100247.88
2018-08-03T17:30:21.535Z,100252.55
2018-08-03T17:32:49.939Z,100249.14
2018-08-03T17:35:18.352Z,100252.22
2018-08-03T17:37:47.021Z,100250.25
2018-08-03T17:40:15.523Z,100245.41
2018-08-03T17:42:43.994Z,100245.48
2018-08-03T17:45:12.476Z,100244.19
2018-08-03T17:47:40.935Z,100243.72
2018-08-03T17:50:09.355Z,100245.03
2018-08-03T17:52:37.973Z,100244.53
2018-08-03T17:55:06.467Z,100238.73
2018-08-03T17:57:34.955Z,100235.62
2018-08-03T18:00:03.592Z,100239.27
2018-08-03T18:02:32.103Z,100243.45
2018-08-03T18:05:00.543Z,100239.61
2018-08-03T18:07:29.105Z,100237.37
2018-08-03T18:09:57.585Z,100238.53
2018-08-03T18:12:25.992Z,100237.41
2018-08-03T18:14:54.415Z,100244.75
2018-08-03T18:17:22.896Z,100241.92
2018-08-03T18:19:51.355Z,100235.24
2018-08-03T18:22:19.871Z,100234.38
2018-08-03T18:24:48.295Z,100236.69
2018-08-03T18:27:16.731Z,100234.77
2018-08-03T18:29:45.504Z,100237.80
2018-08-03T18:32:13.920Z,100238.33
2018-08-03T18:34:42.411Z,100241.08
2018-08-03T18:37:10.843Z,100245.95
2018-08-03T18:39:39.271Z,100245.51
2018-08-03T18:42:07.694Z,100243.63
2018-08-03T18:44:36.132Z,100242.20
2018-08-03T18:47:04.604Z,100244.87
2018-08-03T18:49:33.012Z,100251.88
2018-08-03T18:52:01.498Z,100247.19
2018-08-03T18:54:30.095Z,100245.97
2018-08-03T18:56:58.549Z,100252.51
2018-08-03T18:59:27.232Z,100245.44
2018-08-03T19:01:55.666Z,100248.45
2018-08-03T19:04:24.151Z,100259.31
2018-08-03T19:06:52.618Z,100263.41
2018-08-03T19:09:21.007Z,100256.02
2018-08-03T19:11:49.407Z,100260.53
2018-08-03T19:14:17.980Z,100262.80
2018-08-03T19:16:46.427Z,100263.34
2018-08-03T19:19:14.918Z,100268.30
2018-08-03T19:21:43.882Z,100278.59
2018-08-03T19:24:12.395Z,100277.39
2018-08-03T19:26:40.755Z,100270.34
2018-08-03T19:29:09.454Z,100280.53
2018-08-03T19:31:37.918Z,100279.22
2018-08-03T19:34:06.336Z,100283.02
2018-08-03T19:36:35.156Z,100288.39
2018-08-03T19:39:03.781Z,100286.07
2018-08-03T19:41:32.283Z,100288.02
2018-08-03T19:44:00.839Z,100291.83
2018-08-03T19:46:29.325Z,100296.28
2018-08-03T19:48:57.767Z,100303.17
2018-08-03T19:51:26.209Z,100300.73
2018-08-03T19:53:54.895Z,100303.05
2018-08-03T19:56:23.385Z,100305.21
2018-08-03T19:58:52.065Z,100305.20
2018-08-03T20:01:20.375Z,100306.80
2018-08-03T20:03:49.071Z,100305.08
2018-08-03T20:06:17.902Z,100308.24
2018-08-03T20:08:46.292Z,100304.38
2018-08-03T20:11:14.940Z,100303.06
2018-08-03T20:13:43.464Z,100303.92
2018-08-03T20:16:11.804Z,100305.80
2018-08-03T20:18:40.290Z,100301.58
2018-08-03T20:21:09.183Z,100303.74
2018-08-03T20:23:37.615Z,100310.89
2018-08-03T20:26:06.100Z,100313.41
2018-08-03T20:28:34.756Z,100320.16
2018-08-03T20:31:03.288Z,100315.63
2018-08-03T20:33:31.768Z,100318.44
2018-08-03T20:36:00.312Z,100315.74
2018-08-03T20:38:28.885Z,100317.41
2018-08-03T20:40:57.375Z,100325.31
2018-08-03T20:43:26.235Z,100330.27
2018-08-03T20:45:54.751Z,100329.97
2018-08-03T20:48:23.158Z,100330.84
2018-08-03T20:50:51.752Z,100322.64
2018-08-03T20:53:20.256Z,100324.98
2018-08-03T20:55:48.715Z,100319.93
2018-08-03T20:58:17.161Z,100323.58
2018-08-03T21:00:45.680Z,100325.31
2018-08-03T21:03:14.080Z,100327.26
2018-08-03T21:05:42.639Z,100327.80
2018-08-03T21:08:11.079Z,100324.98
2018-08-03T21:10:39.468Z,100326.44
2018-08-03T21:13:07.907Z,100327.06
2018-08-03T21:15:36.439Z,100332.01
2018-08-03T21:18:05.123Z,100332.33
2018-08-03T21:20:33.739Z,100336.64
2018-08-03T21:23:02.159Z,100335.86
2018-08-03T21:25:30.681Z,100334.56
2018-08-03T21:27:59.427Z,100332.73
2018-08-03T21:30:27.851Z,100333.23
2018-08-03T21:32:56.303Z,100336.21
2018-08-03T21:35:24.743Z,100334.38
2018-08-03T21:37:53.135Z,100327.33
2018-08-03T21:40:21.635Z,100329.74
2018-08-03T21:42:50.116Z,100327.11
2018-08-03T21:45:18.591Z,100324.48
2018-08-03T21:47:46.975Z,100331.77
2018-08-03T21:50:15.720Z,100327.11
2018-08-03T21:52:44.190Z,100330.63
2018-08-03T21:55:12.679Z,100328.05
2018-08-03T21:57:41.107Z,100329.68
2018-08-03T22:00:13.035Z,100329.30
2018-08-03T22:02:41.563Z,100329.36
2018-08-03T22:05:09.992Z,100330.88
2018-08-03T22:07:38.560Z,100326.77
2018-08-03T22:10:07.291Z,100323.65
2018-08-03T22:12:35.751Z,100321.62
2018-08-03T22:15:04.287Z,100326.70
2018-08-03T22:17:32.992Z,100329.42
2018-08-03T22:20:01.457Z,100328.58
2018-08-03T22:22:29.893Z,100327.50
2018-08-03T22:24:58.387Z,100326.33
2018-08-03T22:27:26.901Z,100325.42
2018-08-03T22:29:55.411Z,100323.61
2018-08-03T22:32:23.863Z,100320.67
2018-08-03T22:34:52.265Z,100320.62
2018-08-03T22:37:20.808Z,100323.38
2018-08-03T22:39:49.643Z,100317.08
2018-08-03T22:42:18.103Z,100314.64
2018-08-03T22:44:46.583Z,100321.05
2018-08-03T22:47:15.135Z,100319.45
2018-08-03T22:49:43.691Z,100320.91
2018-08-03T22:52:12.154Z,100314.02
2018-08-03T22:54:40.575Z,100316.22
2018-08-03T22:57:09.031Z,100316.50
2018-08-03T22:59:37.407Z,100323.28
2018-08-03T23:02:08.012Z,100321.92
2018-08-03T23:04:37.381Z,100313.25
2018-08-03T23:07:05.815Z,100315.75
2018-08-03T23:09:34.443Z,100316.87
2018-08-03T23:12:02.902Z,100325.37
2018-08-03T23:14:31.323Z,100320.89
2018-08-03T23:16:59.876Z,100321.55
2018-08-03T23:19:28.567Z,100317.72
2018-08-03T23:21:56.951Z,100316.86
2018-08-03T23:24:25.495Z,100319.94
2018-08-03T23:26:53.934Z,100314.53
2018-08-03T23:29:22.332Z,100309.58
2018-08-03T23:31:50.782Z,100315.34
2018-08-03T23:34:19.243Z,100310.48
2018-08-03T23:36:47.714Z,100320.09
2018-08-03T23:39:16.363Z,100318.37
2018-08-03T23:41:45.055Z,100310.91
2018-08-03T23:44:13.543Z,100312.70
2018-08-03T23:46:42.190Z,100311.07
2018-08-03T23:49:10.603Z,100312.86
2018-08-03T23:51:39.839Z,100313.03
2018-08-03T23:54:08.275Z,100314.48
2018-08-03T23:56:36.720Z,100312.31
2018-08-03T23:59:05.367Z,100311.67
